Time;durP1;ratioP1;P1;durP2;ratioP2;P2;SDS_P1;SDS_P2;PMS_P1;PMS_P2;Temp;Humidity;BMP_temperature;BMP_pressure;BME280_temperature;BME280_humidity;BME280_pressure;Samples;Min_cycle;Max_cycle;Signal;HPM_P1;HPM_P2
2024/01/14 00:01:57;;;;;;;6.38;1.30;;;9.90;84.80;;;;;;5026853;28;20563;-71
2024/01/14 00:04:24;;;;;;;3.13;1.33;;;9.90;84.80;;;;;;5060681;28;20573;-71
2024/01/14 00:06:50;;;;;;;4.72;1.60;;;9.90;84.80;;;;;;5014929;28;20722;-71
2024/01/14 00:09:17;;;;;;;6.22;1.92;;;9.90;84.80;;;;;;5071407;28;20520;-71
2024/01/14 00:11:42;;;;;;;3.58;1.48;;;9.90;85.50;;;;;;5041906;28;20047;-71
2024/01/14 00:14:08;;;;;;;6.68;1.75;;;9.90;84.70;;;;;;5038242;28;20037;-71
2024/01/14 00:16:34;;;;;;;3.35;1.10;;;9.90;84.70;;;;;;5034363;28;20044;-71
2024/01/14 00:19:05;;;;;;;4.30;1.33;;;9.90;84.70;;;;;;5027812;28;20404;-71
2024/01/14 00:21:31;;;;;;;3.90;1.55;;;9.80;84.70;;;;;;5030097;28;20041;-71
2024/01/14 00:23:57;;;;;;;3.15;1.13;;;9.80;84.70;;;;;;5029832;28;20029;-71
2024/01/14 00:26:24;;;;;;;4.22;1.52;;;9.90;84.70;;;;;;5031287;28;20531;-71
2024/01/14 00:28:59;;;;;;;7.82;2.13;;;9.90;84.70;;;;;;5030093;28;20103;-71
2024/01/14 00:31:25;;;;;;;5.28;1.58;;;9.90;84.70;;;;;;5029633;28;20037;-71
2024/01/14 00:33:51;;;;;;;4.63;1.65;;;9.90;84.70;;;;;;5060879;28;20052;-71
2024/01/14 00:36:17;;;;;;;4.68;1.80;;;9.90;84.70;;;;;;5021452;28;20038;-71
2024/01/14 00:38:44;;;;;;;7.05;1.60;;;9.90;84.60;;;;;;5028427;28;20091;-71
2024/01/14 00:41:10;;;;;;;3.78;1.40;;;9.90;84.60;;;;;;5033228;28;20515;-71
2024/01/14 00:43:36;;;;;;;4.03;1.42;;;9.90;84.70;;;;;;5037951;28;20075;-71
2024/01/14 00:46:02;;;;;;;3.83;1.50;;;9.90;84.60;;;;;;5037486;28;20059;-71
2024/01/14 00:48:29;;;;;;;3.80;1.20;;;9.90;84.70;;;;;;5029915;28;20184;-71
2024/01/14 00:50:54;;;;;;;4.93;1.30;;;9.90;84.60;;;;;;5035063;28;20049;-71
2024/01/14 00:53:20;;;;;;;2.05;1.00;;;9.90;84.60;;;;;;5073887;28;20034;-71
2024/01/14 00:55:47;;;;;;;5.40;1.38;;;9.90;84.70;;;;;;5032598;28;20044;-71
2024/01/14 00:58:13;;;;;;;4.85;1.98;;;9.90;84.60;;;;;;5030970;28;20046;-71
2024/01/14 01:00:38;;;;;;;7.00;2.03;;;9.90;84.60;;;;;;5033210;28;20146;-71
2024/01/14 01:03:04;;;;;;;4.47;2.05;;;9.90;84.60;;;;;;5040584;28;20041;-71
2024/01/14 01:05:30;;;;;;;4.43;1.70;;;9.90;84.60;;;;;;5047232;28;20061;-71
2024/01/14 01:07:56;;;;;;;6.38;1.65;;;9.90;84.60;;;;;;5027021;28;20083;-71
2024/01/14 01:10:21;;;;;;;6.43;1.50;;;9.90;84.60;;;;;;5036836;28;20139;-71
2024/01/14 01:12:47;;;;;;;6.05;1.75;;;9.90;84.60;;;;;;5038166;28;20124;-71
2024/01/14 01:15:13;;;;;;;3.30;1.00;;;9.90;85.30;;;;;;5024969;28;20047;-71
2024/01/14 01:17:39;;;;;;;3.63;1.35;;;9.90;84.60;;;;;;5042697;28;20064;-71
2024/01/14 01:20:07;;;;;;;4.68;1.05;;;9.90;84.60;;;;;;5044320;28;20048;-71
2024/01/14 01:22:34;;;;;;;3.92;1.52;;;9.90;84.60;;;;;;5025489;28;20049;-71
2024/01/14 01:24:59;;;;;;;2.50;1.38;;;9.90;84.60;;;;;;5023727;28;20033;-71
2024/01/14 01:27:26;;;;;;;4.13;1.38;;;9.90;84.60;;;;;;5039710;28;20403;-71
2024/01/14 01:29:52;;;;;;;3.92;1.50;;;9.90;84.60;;;;;;5025991;28;20076;-71
2024/01/14 01:32:18;;;;;;;4.90;1.60;;;9.90;84.70;;;;;;5036924;28;20099;-71
2024/01/14 01:34:44;;;;;;;4.82;1.52;;;9.90;84.60;;;;;;5042746;28;20094;-71
2024/01/14 01:37:10;;;;;;;3.40;1.10;;;9.90;84.60;;;;;;5034141;28;20072;-71
2024/01/14 01:39:35;;;;;;;5.80;1.40;;;9.90;84.60;;;;;;5035548;28;20482;-71
2024/01/14 01:42:01;;;;;;;5.68;1.10;;;9.90;84.60;;;;;;5038233;28;20154;-71
2024/01/14 01:44:26;;;;;;;3.63;1.20;;;9.90;84.60;;;;;;5038270;28;20029;-71
2024/01/14 01:46:54;;;;;;;4.07;1.13;;;9.90;84.60;;;;;;5031938;28;20041;-71
2024/01/14 01:49:21;;;;;;;3.47;1.15;;;9.90;84.70;;;;;;5039829;28;20397;-71
2024/01/14 01:51:48;;;;;;;6.70;1.45;;;9.90;85.40;;;;;;5042540;28;20032;-71
2024/01/14 01:54:23;;;;;;;2.50;0.88;;;10.00;84.70;;;;;;5043761;28;20047;-71
2024/01/14 01:56:51;;;;;;;2.75;1.10;;;9.90;84.60;;;;;;5035078;28;20061;-71
2024/01/14 01:59:17;;;;;;;3.88;1.17;;;9.90;84.60;;;;;;5034881;28;20416;-71
2024/01/14 02:01:46;;;;;;;3.40;1.02;;;9.90;84.60;;;;;;5040960;28;20036;-71
2024/01/14 02:04:14;;;;;;;2.10;1.15;;;9.90;84.60;;;;;;5034592;28;20132;-71
2024/01/14 02:06:41;;;;;;;5.97;1.48;;;9.90;84.60;;;;;;5015567;28;20487;-71
2024/01/14 02:09:08;;;;;;;3.33;1.38;;;9.90;84.70;;;;;;5033771;28;20033;-71
2024/01/14 02:11:35;;;;;;;7.70;1.83;;;9.90;84.70;;;;;;5043274;28;20033;-71
2024/01/14 02:14:01;;;;;;;2.85;1.30;;;9.90;84.60;;;;;;5037202;28;20053;-71
2024/01/14 02:16:26;;;;;;;2.50;0.80;;;9.90;84.70;;;;;;5046105;28;20048;-71
2024/01/14 02:18:52;;;;;;;5.15;1.00;;;9.90;84.70;;;;;;5033521;28;20046;-71
2024/01/14 02:21:22;;;;;;;2.38;0.90;;;9.90;84.70;;;;;;5019894;28;20052;-71
2024/01/14 02:23:56;;;;;;;3.72;0.90;;;9.90;84.70;;;;;;5009074;28;20068;-71
2024/01/14 02:26:22;;;;;;;5.20;1.13;;;9.90;84.70;;;;;;5036509;28;20037;-71
2024/01/14 02:28:48;;;;;;;5.53;1.67;;;9.90;84.60;;;;;;5033219;28;20420;-71
2024/01/14 02:31:15;;;;;;;4.07;1.25;;;9.90;84.70;;;;;;5040709;28;20588;-71
2024/01/14 02:33:40;;;;;;;3.95;1.50;;;10.00;84.70;;;;;;5039251;28;20033;-71
2024/01/14 02:36:06;;;;;;;4.22;1.30;;;9.90;84.70;;;;;;5047856;28;20504;-71
2024/01/14 02:38:32;;;;;;;3.83;1.65;;;9.90;84.70;;;;;;5039209;28;20041;-71
2024/01/14 02:40:57;;;;;;;3.40;1.05;;;9.90;84.60;;;;;;5041190;28;20452;-71
2024/01/14 02:43:23;;;;;;;5.10;1.58;;;9.90;84.60;;;;;;5033648;28;20076;-71
2024/01/14 02:45:49;;;;;;;3.58;1.02;;;9.90;84.60;;;;;;5033249;28;20569;-71
2024/01/14 02:48:14;;;;;;;3.45;1.17;;;9.90;84.60;;;;;;5039011;28;20041;-71
2024/01/14 02:50:40;;;;;;;5.13;1.55;;;9.90;84.60;;;;;;5036316;28;20046;-71
2024/01/14 02:53:06;;;;;;;7.10;1.60;;;9.90;84.60;;;;;;5044441;28;20052;-71
2024/01/14 02:55:31;;;;;;;4.60;1.25;;;9.90;84.60;;;;;;5027793;28;20045;-71
2024/01/14 02:57:57;;;;;;;4.25;1.10;;;9.90;84.50;;;;;;5030847;28;20497;-71
2024/01/14 03:00:23;;;;;;;4.10;1.23;;;9.90;84.50;;;;;;5033137;28;20076;-71
2024/01/14 03:02:49;;;;;;;6.10;1.38;;;9.90;84.50;;;;;;5038105;28;20080;-71
2024/01/14 03:05:14;;;;;;;6.32;1.75;;;9.90;84.50;;;;;;5034729;28;20128;-71
2024/01/14 03:07:40;;;;;;;5.90;1.50;;;9.90;84.50;;;;;;5023721;28;20033;-71
2024/01/14 03:10:06;;;;;;;5.28;1.30;;;9.90;84.50;;;;;;5032804;28;20033;-71
2024/01/14 03:12:32;;;;;;;3.15;1.25;;;9.90;84.50;;;;;;5018802;28;20121;-71
2024/01/14 03:14:57;;;;;;;8.20;1.92;;;9.90;84.50;;;;;;5031998;28;20041;-71
2024/01/14 03:17:23;;;;;;;4.20;2.00;;;9.90;84.50;;;;;;5039961;28;20462;-71
2024/01/14 03:19:49;;;;;;;6.25;1.45;;;9.90;84.50;;;;;;5039854;28;20044;-71
2024/01/14 03:22:15;;;;;;;3.83;1.13;;;9.90;84.50;;;;;;5017086;28;20076;-71
2024/01/14 03:24:40;;;;;;;4.80;1.20;;;9.90;84.50;;;;;;5035891;28;20075;-71
2024/01/14 03:27:06;;;;;;;6.95;1.90;;;9.90;84.50;;;;;;5026586;28;20032;-71
2024/01/14 03:29:32;;;;;;;5.22;1.45;;;9.90;84.50;;;;;;5039663;28;20033;-71
2024/01/14 03:31:57;;;;;;;4.00;1.70;;;9.90;84.50;;;;;;5018013;28;20036;-71
2024/01/14 03:34:23;;;;;;;4.53;1.35;;;9.90;84.60;;;;;;5037039;28;20057;-71
2024/01/14 03:36:48;;;;;;;6.18;1.40;;;9.90;84.50;;;;;;5043818;28;20040;-71
2024/01/14 03:39:14;;;;;;;5.63;1.60;;;9.90;84.50;;;;;;5043338;28;20118;-71
2024/01/14 03:41:40;;;;;;;2.05;1.08;;;9.90;84.40;;;;;;5040104;28;20041;-71
2024/01/14 03:44:06;;;;;;;4.40;1.60;;;9.90;84.40;;;;;;5038456;28;20519;-71
2024/01/14 03:46:32;;;;;;;7.57;1.67;;;9.90;84.40;;;;;;5041666;28;20037;-71
2024/01/14 03:48:57;;;;;;;9.23;1.88;;;9.90;84.30;;;;;;5038702;28;20035;-71
2024/01/14 03:51:23;;;;;;;6.57;1.65;;;9.90;84.40;;;;;;5031253;28;20056;-71
2024/01/14 03:53:49;;;;;;;6.28;1.92;;;9.90;84.40;;;;;;5029600;28;20124;-71
2024/01/14 03:56:14;;;;;;;4.68;1.38;;;9.90;84.40;;;;;;5038052;28;20489;-71
2024/01/14 03:58:40;;;;;;;2.38;1.10;;;9.90;84.30;;;;;;5035555;28;20064;-71
2024/01/14 04:01:06;;;;;;;6.82;1.42;;;9.90;84.30;;;;;;5030380;28;20038;-71
2024/01/14 04:03:31;;;;;;;6.85;2.03;;;9.90;84.30;;;;;;5031010;28;20073;-71
2024/01/14 04:05:58;;;;;;;5.18;1.75;;;9.90;84.30;;;;;;5036331;28;20043;-71
2024/01/14 04:08:24;;;;;;;5.05;2.22;;;9.90;84.30;;;;;;5039688;28;20127;-71
2024/01/14 04:10:50;;;;;;;4.97;1.08;;;9.90;84.30;;;;;;5039058;28;20604;-71
2024/01/14 04:13:15;;;;;;;4.07;1.67;;;9.90;84.30;;;;;;5035773;28;20073;-71
2024/01/14 04:15:41;;;;;;;6.90;1.42;;;9.90;84.30;;;;;;5035052;28;20124;-71
2024/01/14 04:18:07;;;;;;;4.30;1.67;;;9.90;84.30;;;;;;5034063;28;20133;-71
2024/01/14 04:20:32;;;;;;;4.10;1.65;;;9.90;84.30;;;;;;5017261;28;20412;-71
2024/01/14 04:22:58;;;;;;;4.35;1.38;;;9.90;84.30;;;;;;5037723;28;20060;-71
2024/01/14 04:25:24;;;;;;;4.57;1.90;;;9.90;84.30;;;;;;5041400;28;20038;-71
2024/01/14 04:27:49;;;;;;;3.55;1.60;;;9.90;84.20;;;;;;5070396;28;20092;-71
2024/01/14 04:30:15;;;;;;;4.32;1.25;;;9.90;84.20;;;;;;5071847;28;20063;-71
2024/01/14 04:32:41;;;;;;;5.97;1.73;;;9.90;84.20;;;;;;5035678;28;20077;-71
2024/01/14 04:35:07;;;;;;;6.00;1.38;;;9.90;84.20;;;;;;5041623;28;20087;-71
2024/01/14 04:37:33;;;;;;;4.47;1.67;;;9.90;84.20;;;;;;5033084;28;20050;-71
2024/01/14 04:39:59;;;;;;;5.13;1.65;;;9.90;84.20;;;;;;5045395;28;20400;-71
2024/01/14 04:42:24;;;;;;;6.03;1.20;;;9.90;84.20;;;;;;5024222;28;20037;-71
2024/01/14 04:44:50;;;;;;;4.53;1.33;;;9.90;84.20;;;;;;5031170;28;20034;-71
2024/01/14 04:47:16;;;;;;;5.22;1.52;;;9.90;84.20;;;;;;5029943;28;20041;-71
2024/01/14 04:49:41;;;;;;;2.92;1.20;;;9.90;84.10;;;;;;5020860;28;20134;-71
2024/01/14 04:52:07;;;;;;;5.65;1.40;;;9.90;84.10;;;;;;5035440;28;20052;-71
2024/01/14 04:54:33;;;;;;;8.55;1.55;;;9.90;84.20;;;;;;5020113;28;20040;-71
2024/01/14 04:56:58;;;;;;;3.75;1.17;;;9.90;84.20;;;;;;5037567;28;20382;-71
2024/01/14 04:59:24;;;;;;;4.18;1.60;;;9.90;84.20;;;;;;5031787;28;20477;-71
2024/01/14 05:01:49;;;;;;;5.75;1.35;;;9.80;84.10;;;;;;5039211;28;20051;-72
2024/01/14 05:04:15;;;;;;;2.10;0.82;;;9.80;84.10;;;;;;5043816;28;20092;-71
2024/01/14 05:06:41;;;;;;;4.82;1.73;;;9.90;84.10;;;;;;5019795;28;20456;-71
2024/01/14 05:09:07;;;;;;;6.45;1.65;;;9.80;84.10;;;;;;5026707;28;20549;-71
2024/01/14 05:11:33;;;;;;;4.68;1.00;;;9.90;84.10;;;;;;5020020;28;20041;-71
2024/01/14 05:13:59;;;;;;;3.65;1.15;;;9.80;84.10;;;;;;5041158;28;20551;-71
2024/01/14 05:16:24;;;;;;;3.70;1.30;;;9.90;84.10;;;;;;5051178;28;20454;-71
2024/01/14 05:18:50;;;;;;;5.90;1.60;;;9.90;84.20;;;;;;5025523;28;20080;-71
2024/01/14 05:21:16;;;;;;;4.25;1.33;;;9.90;84.10;;;;;;5046485;28;20045;-71
2024/01/14 05:23:43;;;;;;;5.35;1.80;;;9.90;84.10;;;;;;5036543;28;20044;-71
2024/01/14 05:26:09;;;;;;;5.22;1.30;;;9.80;84.10;;;;;;5034361;28;20229;-71
2024/01/14 05:28:35;;;;;;;7.03;1.52;;;9.90;84.20;;;;;;5034291;28;20064;-71
2024/01/14 05:31:00;;;;;;;2.83;1.20;;;9.80;84.10;;;;;;5035806;28;20071;-71
2024/01/14 05:33:26;;;;;;;3.78;1.13;;;9.80;84.10;;;;;;5034307;28;20041;-71
2024/01/14 05:35:53;;;;;;;5.30;1.27;;;9.90;84.20;;;;;;5033520;28;20060;-71
2024/01/14 05:38:19;;;;;;;2.08;1.10;;;9.90;84.10;;;;;;5036049;28;20448;-71
2024/01/14 05:40:44;;;;;;;3.58;1.20;;;9.80;84.00;;;;;;5042654;28;20091;-71
2024/01/14 05:43:10;;;;;;;2.33;1.10;;;9.90;84.10;;;;;;5043576;28;20041;-71
2024/01/14 05:45:36;;;;;;;6.45;1.70;;;9.90;84.10;;;;;;5048099;28;20048;-71
2024/01/14 05:48:01;;;;;;;2.83;1.15;;;9.90;84.00;;;;;;5040878;28;20091;-71
2024/01/14 05:50:27;;;;;;;4.80;1.25;;;9.90;84.00;;;;;;5038150;28;20107;-71
2024/01/14 05:52:52;;;;;;;3.72;1.30;;;10.00;84.00;;;;;;5033008;28;20045;-71
2024/01/14 05:55:18;;;;;;;7.38;1.42;;;9.90;83.90;;;;;;5021598;28;20057;-71
2024/01/14 05:57:44;;;;;;;4.68;1.90;;;10.00;83.90;;;;;;5033373;28;20045;-71
2024/01/14 06:00:10;;;;;;;2.65;0.73;;;10.00;83.90;;;;;;5031010;28;20050;-71
2024/01/14 06:02:35;;;;;;;4.25;1.23;;;10.00;83.90;;;;;;5020642;28;20033;-71
2024/01/14 06:05:01;;;;;;;2.50;1.00;;;10.00;83.80;;;;;;5044964;28;20535;-71
2024/01/14 06:07:27;;;;;;;3.90;1.40;;;10.00;83.80;;;;;;5021354;28;20033;-71
2024/01/14 06:09:53;;;;;;;3.72;1.25;;;10.10;83.90;;;;;;5031880;28;20555;-71
2024/01/14 06:12:19;;;;;;;5.28;1.27;;;10.10;83.80;;;;;;5038371;28;20037;-71
2024/01/14 06:14:44;;;;;;;2.20;0.80;;;10.10;83.70;;;;;;5041150;28;20103;-71
2024/01/14 06:17:10;;;;;;;2.85;1.23;;;10.10;83.80;;;;;;5038093;28;20485;-71
2024/01/14 06:19:36;;;;;;;3.25;1.10;;;10.10;83.70;;;;;;5034371;28;20060;-71
2024/01/14 06:22:01;;;;;;;3.90;1.20;;;10.10;83.70;;;;;;5034709;28;20504;-71
2024/01/14 06:24:27;;;;;;;4.15;1.27;;;10.10;83.60;;;;;;5032423;28;20037;-71
2024/01/14 06:26:54;;;;;;;4.40;0.85;;;10.10;83.50;;;;;;5066938;28;20042;-71
2024/01/14 06:29:20;;;;;;;3.85;1.35;;;10.20;84.40;;;;;;5034810;28;20038;-71
2024/01/14 06:31:46;;;;;;;3.13;0.70;;;10.20;83.60;;;;;;5019316;28;20106;-71
2024/01/14 06:34:11;;;;;;;2.60;1.25;;;10.20;83.60;;;;;;5037383;28;20033;-71
2024/01/14 06:36:37;;;;;;;3.22;1.30;;;10.20;83.50;;;;;;5042173;28;20476;-71
2024/01/14 06:39:05;;;;;;;6.65;1.13;;;10.20;83.50;;;;;;5038535;28;20038;-71
2024/01/14 06:41:31;;;;;;;3.70;1.55;;;10.20;83.50;;;;;;5024881;28;20033;-71
2024/01/14 06:43:57;;;;;;;3.45;1.13;;;10.20;83.50;;;;;;5065476;28;20283;-71
2024/01/14 06:46:22;;;;;;;4.18;1.50;;;10.20;83.50;;;;;;5035437;28;20028;-71
2024/01/14 06:48:48;;;;;;;3.08;1.10;;;10.20;83.50;;;;;;5032903;28;20042;-71
2024/01/14 06:51:14;;;;;;;3.70;1.30;;;10.30;83.50;;;;;;5027159;28;20121;-71
2024/01/14 06:53:41;;;;;;;4.50;1.08;;;10.20;83.50;;;;;;5040344;28;20044;-71
2024/01/14 06:56:08;;;;;;;3.65;1.42;;;10.30;83.50;;;;;;5030512;28;20087;-71
2024/01/14 06:58:34;;;;;;;2.33;1.20;;;10.30;83.50;;;;;;5038588;28;20427;-71
2024/01/14 07:01:01;;;;;;;2.88;0.95;;;10.30;83.50;;;;;;5031761;28;20032;-71
2024/01/14 07:03:27;;;;;;;6.82;1.33;;;10.30;83.50;;;;;;5034693;28;20055;-71
2024/01/14 07:05:53;;;;;;;3.75;1.33;;;10.30;83.50;;;;;;5032656;28;20045;-71
2024/01/14 07:08:18;;;;;;;4.32;1.27;;;10.30;83.40;;;;;;5018676;28;20583;-71
2024/01/14 07:10:44;;;;;;;5.63;1.30;;;10.30;83.40;;;;;;5036503;28;20025;-71
2024/01/14 07:13:10;;;;;;;3.08;0.80;;;10.30;83.40;;;;;;5037230;28;20037;-71
2024/01/14 07:15:35;;;;;;;3.03;0.80;;;10.30;83.40;;;;;;5035886;28;20103;-71
2024/01/14 07:18:04;;;;;;;3.70;1.00;;;10.30;83.40;;;;;;5032849;28;20404;-71
2024/01/14 07:20:30;;;;;;;5.10;1.20;;;10.30;83.30;;;;;;5017152;28;20102;-71
2024/01/14 07:22:56;;;;;;;4.03;1.33;;;10.30;83.30;;;;;;5018010;28;20049;-71
2024/01/14 07:25:21;;;;;;;2.80;0.95;;;10.30;83.30;;;;;;5034576;28;20040;-71
2024/01/14 07:27:47;;;;;;;3.22;1.40;;;10.30;83.20;;;;;;5017568;28;20090;-71
2024/01/14 07:30:13;;;;;;;3.65;1.17;;;10.30;83.20;;;;;;5021906;28;20095;-71
2024/01/14 07:32:39;;;;;;;2.78;0.75;;;10.30;83.20;;;;;;5016437;28;20140;-71
2024/01/14 07:35:06;;;;;;;3.45;1.20;;;10.30;83.20;;;;;;5035098;28;20065;-71
2024/01/14 07:37:33;;;;;;;5.72;1.38;;;10.30;83.20;;;;;;5032202;28;20041;-71
2024/01/14 07:40:00;;;;;;;6.25;1.23;;;10.30;83.20;;;;;;5037421;28;20053;-71
2024/01/14 07:42:26;;;;;;;1.73;0.82;;;10.30;83.20;;;;;;5022636;28;20048;-71
2024/01/14 07:44:53;;;;;;;5.18;1.30;;;10.40;83.20;;;;;;5030085;28;20042;-71
2024/01/14 07:47:19;;;;;;;3.15;0.95;;;10.30;83.20;;;;;;5028002;28;20033;-71
2024/01/14 07:49:48;;;;;;;3.13;1.13;;;10.40;83.20;;;;;;5034308;28;20030;-71
2024/01/14 07:52:17;;;;;;;3.28;0.93;;;10.40;83.20;;;;;;5033265;28;20098;-71
2024/01/14 07:54:43;;;;;;;2.70;1.23;;;10.40;83.20;;;;;;5034585;28;20044;-71
2024/01/14 07:57:09;;;;;;;1.75;0.88;;;10.40;83.20;;;;;;5041358;28;20041;-71
2024/01/14 07:59:35;;;;;;;3.92;1.10;;;10.40;83.20;;;;;;5037297;28;20533;-71
2024/01/14 08:02:01;;;;;;;2.65;1.30;;;10.40;83.20;;;;;;5026180;28;20041;-71
2024/01/14 08:04:28;;;;;;;2.97;1.10;;;10.40;83.10;;;;;;5010430;28;20501;-71
2024/01/14 08:06:53;;;;;;;2.78;1.17;;;10.40;83.20;;;;;;5030424;28;20041;-71
2024/01/14 08:09:20;;;;;;;2.50;0.88;;;10.40;83.20;;;;;;5029536;28;20048;-71
2024/01/14 08:11:45;;;;;;;3.45;1.00;;;10.40;83.20;;;;;;5030266;28;20497;-71
2024/01/14 08:14:11;;;;;;;2.30;1.00;;;10.40;83.20;;;;;;5029657;28;20052;-71
2024/01/14 08:16:37;;;;;;;3.08;1.30;;;10.40;83.20;;;;;;5030056;28;20087;-71
2024/01/14 08:19:03;;;;;;;5.13;1.17;;;10.40;83.20;;;;;;5044901;28;20047;-71
2024/01/14 08:21:29;;;;;;;4.00;1.05;;;10.40;83.20;;;;;;5031354;28;20124;-71
2024/01/14 08:23:54;;;;;;;4.38;1.10;;;10.40;83.20;;;;;;5017752;28;20443;-71
2024/01/14 08:26:20;;;;;;;3.30;0.80;;;10.40;83.20;;;;;;5033139;28;20452;-71
2024/01/14 08:28:46;;;;;;;2.83;1.05;;;10.40;83.20;;;;;;5042859;28;20048;-71
2024/01/14 08:31:12;;;;;;;3.72;1.05;;;10.50;83.30;;;;;;5034416;28;20034;-71
2024/01/14 08:33:41;;;;;;;3.58;1.10;;;10.50;83.30;;;;;;5031980;28;20028;-71
2024/01/14 08:36:08;;;;;;;3.67;1.30;;;10.50;83.30;;;;;;5037409;28;20048;-71
2024/01/14 08:38:35;;;;;;;4.35;1.77;;;10.50;83.20;;;;;;5036401;28;20041;-71
2024/01/14 08:41:00;;;;;;;2.85;1.00;;;10.50;83.30;;;;;;5020291;28;20045;-71
2024/01/14 08:43:26;;;;;;;1.98;0.88;;;10.40;83.20;;;;;;5039208;28;20037;-71
2024/01/14 08:45:52;;;;;;;2.97;0.90;;;10.50;83.30;;;;;;5033801;28;20119;-71
2024/01/14 08:48:17;;;;;;;1.48;1.00;;;10.50;83.30;;;;;;5012388;28;20296;-71
2024/01/14 08:50:43;;;;;;;1.83;1.02;;;10.50;83.30;;;;;;5039235;28;20041;-71
2024/01/14 08:53:09;;;;;;;3.05;1.48;;;10.50;83.30;;;;;;5013746;28;20136;-71
2024/01/14 08:55:34;;;;;;;2.70;1.20;;;10.50;83.30;;;;;;5033190;28;20045;-71
2024/01/14 08:58:00;;;;;;;2.13;1.02;;;10.50;83.30;;;;;;5017073;28;20041;-71
2024/01/14 09:00:26;;;;;;;3.10;1.30;;;10.50;83.40;;;;;;5021967;28;20124;-71
2024/01/14 09:02:52;;;;;;;6.00;2.17;;;10.50;83.30;;;;;;5019290;28;20045;-71
2024/01/14 09:05:17;;;;;;;3.45;1.25;;;10.50;83.30;;;;;;5036629;28;20055;-71
2024/01/14 09:07:43;;;;;;;2.67;1.45;;;10.50;83.30;;;;;;5030439;28;20425;-71
2024/01/14 09:10:09;;;;;;;2.10;1.00;;;10.50;83.40;;;;;;5035105;28;20112;-71
2024/01/14 09:12:34;;;;;;;2.55;1.33;;;10.50;83.40;;;;;;5039370;28;20073;-71
2024/01/14 09:15:00;;;;;;;1.30;1.00;;;10.50;83.40;;;;;;5022473;28;20395;-71
2024/01/14 09:17:26;;;;;;;2.22;1.10;;;10.50;83.40;;;;;;5040033;28;20048;-71
2024/01/14 09:19:51;;;;;;;2.17;0.90;;;10.50;83.40;;;;;;5032822;28;20044;-71
2024/01/14 09:22:17;;;;;;;3.50;1.25;;;10.60;83.50;;;;;;5040762;28;20046;-71
2024/01/14 09:24:45;;;;;;;2.50;0.80;;;10.50;83.50;;;;;;5043278;28;20117;-71
2024/01/14 09:27:11;;;;;;;2.22;0.95;;;10.50;83.40;;;;;;5031393;28;20037;-71
2024/01/14 09:29:37;;;;;;;4.47;1.25;;;10.50;83.40;;;;;;5029754;28;20049;-71
2024/01/14 09:32:03;;;;;;;6.68;1.02;;;10.50;83.40;;;;;;5032950;28;20056;-71
2024/01/14 09:34:28;;;;;;;3.33;1.00;;;10.50;83.40;;;;;;5034047;28;20040;-71
2024/01/14 09:36:54;;;;;;;1.35;0.90;;;10.50;83.40;;;;;;5017045;28;20037;-71
2024/01/14 09:39:21;;;;;;;2.33;1.10;;;10.60;83.60;;;;;;5036109;28;20491;-71
2024/01/14 09:42:02;;;;;;;2.63;1.10;;;10.50;83.50;;;;;;5038222;28;20072;-71
2024/01/14 09:44:27;;;;;;;1.70;0.82;;;10.50;83.50;;;;;;5016208;28;20495;-71
2024/01/14 09:46:54;;;;;;;1.67;1.00;;;10.50;83.40;;;;;;5022163;28;20041;-71
2024/01/14 09:49:21;;;;;;;2.28;1.10;;;10.60;83.50;;;;;;5033209;28;20099;-71
2024/01/14 09:51:49;;;;;;;2.38;0.70;;;10.60;83.50;;;;;;5032644;28;20552;-71
2024/01/14 09:54:15;;;;;;;1.27;0.73;;;10.60;83.50;;;;;;5032898;28;20106;-71
2024/01/14 09:56:41;;;;;;;3.10;0.82;;;10.60;83.50;;;;;;5032544;28;20497;-71
2024/01/14 09:59:09;;;;;;;3.20;0.80;;;10.60;83.60;;;;;;5018917;28;20037;-71
2024/01/14 10:01:35;;;;;;;3.00;1.23;;;10.60;83.50;;;;;;5037477;28;20045;-71
2024/01/14 10:04:02;;;;;;;1.55;0.77;;;10.60;83.60;;;;;;5018822;28;20042;-71
2024/01/14 10:06:28;;;;;;;1.50;0.90;;;10.60;83.60;;;;;;5040172;28;20088;-71
2024/01/14 10:08:55;;;;;;;1.88;0.85;;;10.60;83.50;;;;;;5020902;28;20042;-71
2024/01/14 10:11:21;;;;;;;0.85;0.65;;;10.60;83.50;;;;;;5036328;28;20092;-71
2024/01/14 10:13:49;;;;;;;1.25;0.63;;;10.60;83.50;;;;;;5037968;28;20139;-71
2024/01/14 10:16:15;;;;;;;1.38;1.00;;;10.60;83.50;;;;;;5033654;28;20404;-71
2024/01/14 10:18:40;;;;;;;1.48;0.68;;;10.60;83.50;;;;;;5033882;28;20060;-71
2024/01/14 10:21:06;;;;;;;2.35;0.80;;;10.60;83.60;;;;;;5032897;28;20461;-71
2024/01/14 10:23:32;;;;;;;1.02;0.70;;;10.60;83.50;;;;;;5031989;28;20048;-71
2024/01/14 10:26:02;;;;;;;0.60;0.60;;;10.60;83.60;;;;;;5025333;28;20398;-71
2024/01/14 10:28:37;;;;;;;1.23;0.80;;;10.60;83.60;;;;;;5039103;28;20045;-71
2024/01/14 10:31:08;;;;;;;1.30;0.80;;;10.60;83.60;;;;;;5035954;28;20203;-71
2024/01/14 10:33:35;;;;;;;2.70;1.13;;;10.60;83.60;;;;;;5036339;28;20475;-71
2024/01/14 10:36:06;;;;;;;1.25;0.90;;;10.60;83.50;;;;;;5024023;28;20401;-71
2024/01/14 10:38:32;;;;;;;1.30;0.80;;;10.70;83.60;;;;;;5033102;28;20511;-71
2024/01/14 10:40:57;;;;;;;2.40;1.20;;;10.60;83.50;;;;;;5041118;28;20037;-72
2024/01/14 10:43:26;;;;;;;5.28;2.03;;;10.60;83.50;;;;;;5031327;28;20386;-71
2024/01/14 10:45:52;;;;;;;5.32;2.17;;;10.70;83.80;;;;;;5031675;28;20048;-71
2024/01/14 10:48:28;;;;;;;4.55;2.20;;;10.60;83.90;;;;;;5024567;28;20029;-71
2024/01/14 10:50:56;;;;;;;4.30;2.10;;;10.60;84.00;;;;;;5025915;28;20029;-71
2024/01/14 10:53:33;;;;;;;2.80;2.42;;;10.60;84.10;;;;;;5030068;28;20041;-71
2024/01/14 10:56:01;;;;;;;4.13;2.80;;;10.60;84.10;;;;;;5030462;28;20091;-71
2024/01/14 10:58:29;;;;;;;5.93;3.00;;;10.60;84.00;;;;;;5063404;28;20037;-71
2024/01/14 11:01:06;;;;;;;5.00;2.72;;;10.60;84.00;;;;;;5031531;28;20046;-71
2024/01/14 11:03:33;;;;;;;3.70;3.13;;;10.60;84.00;;;;;;5031217;28;20063;-71
2024/01/14 11:05:59;;;;;;;4.47;2.83;;;10.60;84.00;;;;;;5028260;28;20049;-71
2024/01/14 11:08:25;;;;;;;5.18;3.92;;;10.60;84.00;;;;;;5032148;28;20037;-71
2024/01/14 11:10:53;;;;;;;5.78;3.72;;;10.60;84.00;;;;;;5031105;28;20048;-71
2024/01/14 11:13:43;;;;;;;6.55;3.83;;;10.70;84.00;;;;;;5031065;28;20501;-71
2024/01/14 11:16:20;;;;;;;6.00;5.00;;;10.60;84.00;;;;;;5047727;28;20515;-71
2024/01/14 11:18:53;;;;;;;5.70;4.55;;;10.60;83.90;;;;;;5030510;28;20091;-71
2024/01/14 11:21:56;;;;;;;5.70;4.85;;;10.70;84.00;;;;;;5014034;28;20103;-71
2024/01/14 11:24:25;;;;;;;5.03;3.88;;;10.60;83.90;;;;;;5030238;28;20037;-71
2024/01/14 11:26:51;;;;;;;6.50;5.20;;;10.60;84.00;;;;;;5013726;28;20044;-71
2024/01/14 11:29:33;;;;;;;6.55;5.55;;;10.70;84.00;;;;;;5030721;28;20087;-76
2024/01/14 11:32:11;;;;;;;5.93;5.03;;;10.70;84.90;;;;;;5035340;28;20041;-71
2024/01/14 11:34:46;;;;;;;5.88;4.40;;;10.60;84.80;;;;;;5026611;28;20048;-71
2024/01/14 11:37:45;;;;;;;5.10;3.83;;;10.60;85.00;;;;;;5028221;28;20501;-71
2024/01/14 11:40:16;;;;;;;6.63;4.90;;;10.60;85.00;;;;;;5030631;28;20489;-71
2024/01/14 11:42:52;;;;;;;6.22;4.50;;;10.60;84.80;;;;;;5031555;28;20060;-71
2024/01/14 11:45:23;;;;;;;7.15;5.00;;;10.60;84.80;;;;;;5066200;28;20102;-71
2024/01/14 11:47:51;;;;;;;5.45;3.72;;;10.60;84.70;;;;;;5066120;28;20155;-71
2024/01/14 11:50:18;;;;;;;5.05;3.53;;;10.60;84.60;;;;;;5067774;28;20116;-71
2024/01/14 11:52:49;;;;;;;5.32;3.60;;;10.60;84.60;;;;;;5032802;28;20405;-71
2024/01/14 11:55:17;;;;;;;5.30;3.47;;;10.60;84.50;;;;;;5034754;28;20120;-71
2024/01/14 11:57:47;;;;;;;6.63;3.85;;;10.50;84.50;;;;;;5036767;28;20045;-71
2024/01/14 12:00:15;;;;;;;6.50;4.47;;;10.50;84.50;;;;;;5034639;28;20504;-72
2024/01/14 12:02:41;;;;;;;5.15;3.80;;;10.50;84.50;;;;;;5062808;28;20033;-72
2024/01/14 12:05:20;;;;;;;5.20;3.72;;;10.50;84.50;;;;;;5028251;28;20516;-71
2024/01/14 12:07:46;;;;;;;8.93;4.90;;;10.50;84.50;;;;;;5007892;28;20050;-71
2024/01/14 12:10:16;;;;;;;7.07;4.85;;;10.50;84.50;;;;;;5025970;28;20041;-71
2024/01/14 12:12:42;;;;;;;5.15;4.32;;;10.50;84.60;;;;;;5034237;28;20052;-71
2024/01/14 12:15:09;;;;;;;5.50;4.38;;;10.50;84.60;;;;;;5036380;28;20423;-71
2024/01/14 12:17:35;;;;;;;4.53;3.22;;;10.50;84.60;;;;;;5034208;28;20041;-71
2024/01/14 12:20:07;;;;;;;5.75;4.40;;;10.50;84.60;;;;;;5039646;28;20041;-71
2024/01/14 12:22:35;;;;;;;7.65;4.07;;;10.40;84.60;;;;;;5036394;28;20041;-71
2024/01/14 12:25:01;;;;;;;4.70;3.75;;;10.40;84.60;;;;;;5037080;28;20287;-71
2024/01/14 12:27:27;;;;;;;5.20;4.25;;;10.40;84.60;;;;;;5023061;28;20135;-71
2024/01/14 12:29:54;;;;;;;6.43;4.28;;;10.40;84.60;;;;;;5070793;28;20029;-71
2024/01/14 12:32:20;;;;;;;5.55;4.30;;;10.40;84.60;;;;;;5039110;28;20053;-71
2024/01/14 12:34:49;;;;;;;5.00;3.67;;;10.40;84.60;;;;;;5035414;28;20048;-71
2024/01/14 12:37:15;;;;;;;5.43;3.75;;;10.40;84.60;;;;;;5037235;28;20029;-71
2024/01/14 12:39:40;;;;;;;5.20;4.45;;;10.40;84.60;;;;;;5020851;28;20509;-71
2024/01/14 12:42:06;;;;;;;5.60;5.00;;;10.40;85.30;;;;;;5067422;28;20037;-71
2024/01/14 12:44:39;;;;;;;5.15;4.40;;;10.40;84.70;;;;;;5037893;28;20098;-71
2024/01/14 12:47:08;;;;;;;6.25;5.05;;;10.40;85.40;;;;;;5028531;28;20029;-71
2024/01/14 12:49:34;;;;;;;5.72;4.97;;;10.40;84.70;;;;;;5035588;28;20041;-71